sensor_id;sensor_type;location;lat;lon;timestamp;pressure;altitude;pressure_sealevel;temperature;humidity
50093;BME280;35974;47.752;10.290;2023-04-16T04:00:23;93735.84;;;2.89;100.00
50093;BME280;35974;47.752;10.290;2023-04-16T04:02:50;93726.16;;;2.83;100.00
50093;BME280;35974;47.752;10.290;2023-04-16T04:05:17;93730.84;;;2.88;100.00
50093;BME280;35974;47.752;10.290;2023-04-16T04:07:43;93733.28;;;2.89;100.00
50093;BME280;35974;47.752;10.290;2023-04-16T04:10:09;93730.38;;;2.92;100.00
50093;BME280;35974;47.752;10.290;2023-04-16T04:12:36;93729.22;;;2.95;100.00
50093;BME280;35974;47.752;10.290;2023-04-16T04:15:02;93734.53;;;2.93;100.00
50093;BME280;35974;47.752;10.290;2023-04-16T04:17:28;93721.00;;;2.91;100.00
50093;BME280;35974;47.752;10.290;2023-04-16T04:19:55;93728.09;;;2.89;100.00
50093;BME280;35974;47.752;10.290;2023-04-16T04:22:26;93733.91;;;2.83;100.00
50093;BME280;35974;47.752;10.290;2023-04-16T04:24:53;93729.53;;;2.84;100.00
50093;BME280;35974;47.752;10.290;2023-04-16T04:27:22;93734.22;;;2.80;100.00
50093;BME280;35974;47.752;10.290;2023-04-16T04:29:49;93736.47;;;2.75;100.00
50093;BME280;35974;47.752;10.290;2023-04-16T04:32:15;93738.91;;;2.85;100.00
50093;BME280;35974;47.752;10.290;2023-04-16T04:34:41;93738.44;;;2.89;100.00
50093;BME280;35974;47.752;10.290;2023-04-16T04:37:07;93736.50;;;2.91;100.00
50093;BME280;35974;47.752;10.290;2023-04-16T04:39:34;93741.97;;;2.88;100.00
50093;BME280;35974;47.752;10.290;2023-04-16T04:42:00;93742.28;;;2.85;100.00
50093;BME280;35974;47.752;10.290;2023-04-16T04:44:28;93751.34;;;2.81;100.00
50093;BME280;35974;47.752;10.290;2023-04-16T04:46:54;93745.19;;;2.90;100.00
50093;BME280;35974;47.752;10.290;2023-04-16T04:49:20;93746.84;;;2.91;100.00
50093;BME280;35974;47.752;10.290;2023-04-16T04:51:47;93744.56;;;2.97;100.00
50093;BME280;35974;47.752;10.290;2023-04-16T04:54:13;93749.09;;;2.86;100.00
50093;BME280;35974;47.752;10.290;2023-04-16T04:56:39;93757.16;;;2.83;100.00
50093;BME280;35974;47.752;10.290;2023-04-16T04:59:06;93756.19;;;2.84;100.00
50093;BME280;35974;47.752;10.290;2023-04-16T05:01:32;93760.22;;;2.79;100.00
50093;BME280;35974;47.752;10.290;2023-04-16T05:03:59;93761.03;;;2.87;100.00
50093;BME280;35974;47.752;10.290;2023-04-16T05:06:25;93762.97;;;2.85;100.00
50093;BME280;35974;47.752;10.290;2023-04-16T05:08:54;93771.22;;;2.97;100.00
50093;BME280;35974;47.752;10.290;2023-04-16T05:11:21;93769.78;;;2.95;100.00
50093;BME280;35974;47.752;10.290;2023-04-16T05:13:47;93767.19;;;3.03;100.00
50093;BME280;35974;47.752;10.290;2023-04-16T05:16:13;93768.31;;;3.08;100.00
50093;BME280;35974;47.752;10.290;2023-04-16T05:18:39;93771.03;;;2.90;100.00
50093;BME280;35974;47.752;10.290;2023-04-16T05:21:07;93775.56;;;2.80;100.00
50093;BME280;35974;47.752;10.290;2023-04-16T05:23:38;93776.53;;;2.79;100.00
50093;BME280;35974;47.752;10.290;2023-04-16T05:26:05;93778.78;;;2.82;100.00
50093;BME280;35974;47.752;10.290;2023-04-16T05:28:32;93782.72;;;3.03;100.00
50093;BME280;35974;47.752;10.290;2023-04-16T05:30:58;93778.50;;;3.02;100.00
50093;BME280;35974;47.752;10.290;2023-04-16T05:33:25;93783.69;;;3.10;100.00
50093;BME280;35974;47.752;10.290;2023-04-16T05:35:51;93781.09;;;3.10;100.00
50093;BME280;35974;47.752;10.290;2023-04-16T05:38:18;93780.44;;;3.00;100.00
50093;BME280;35974;47.752;10.290;2023-04-16T05:40:44;93784.31;;;3.04;100.00
50093;BME280;35974;47.752;10.290;2023-04-16T05:43:10;93789.50;;;3.12;100.00
50093;BME280;35974;47.752;10.290;2023-04-16T05:45:37;93795.00;;;3.09;100.00
50093;BME280;35974;47.752;10.290;2023-04-16T05:48:06;93796.59;;;3.10;100.00
50093;BME280;35974;47.752;10.290;2023-04-16T05:50:37;93792.09;;;3.12;100.00
50093;BME280;35974;47.752;10.290;2023-04-16T05:53:08;93795.47;;;3.04;100.00
50093;BME280;35974;47.752;10.290;2023-04-16T05:55:34;93800.81;;;3.03;100.00
50093;BME280;35974;47.752;10.290;2023-04-16T05:58:04;93805.34;;;3.09;100.00
50093;BME280;35974;47.752;10.290;2023-04-16T06:00:31;93796.28;;;3.13;100.00
50093;BME280;35974;47.752;10.290;2023-04-16T06:02:57;93691.22;;;2.46;100.00
50093;BME280;35974;47.752;10.290;2023-04-16T06:08:04;93808.91;;;3.33;100.00
50093;BME280;35974;47.752;10.290;2023-04-16T06:10:30;93809.53;;;3.35;100.00
50093;BME280;35974;47.752;10.290;2023-04-16T06:12:56;93813.13;;;3.34;100.00
50093;BME280;35974;47.752;10.290;2023-04-16T06:15:23;93815.72;;;3.42;100.00
50093;BME280;35974;47.752;10.290;2023-04-16T06:17:49;93810.22;;;3.45;100.00
50093;BME280;35974;47.752;10.290;2023-04-16T06:20:16;93812.16;;;3.43;100.00
50093;BME280;35974;47.752;10.290;2023-04-16T06:22:42;93814.09;;;3.41;100.00
50093;BME280;35974;47.752;10.290;2023-04-16T06:25:09;93818.63;;;3.47;100.00
50093;BME280;35974;47.752;10.290;2023-04-16T06:27:35;93811.16;;;3.52;100.00
50093;BME280;35974;47.752;10.290;2023-04-16T06:30:02;93816.34;;;3.52;100.00
50093;BME280;35974;47.752;10.290;2023-04-16T06:32:28;93817.19;;;3.53;100.00
50093;BME280;35974;47.752;10.290;2023-04-16T06:34:55;93819.59;;;3.54;100.00
50093;BME280;35974;47.752;10.290;2023-04-16T06:37:23;93814.25;;;3.64;100.00
50093;BME280;35974;47.752;10.290;2023-04-16T06:39:50;93812.78;;;3.61;100.00
50093;BME280;35974;47.752;10.290;2023-04-16T06:42:16;93815.38;;;3.53;100.00
50093;BME280;35974;47.752;10.290;2023-04-16T06:44:42;93821.53;;;3.52;100.00
50093;BME280;35974;47.752;10.290;2023-04-16T06:47:09;93818.91;;;3.77;100.00
50093;BME280;35974;47.752;10.290;2023-04-16T06:49:36;93818.28;;;3.66;100.00
50093;BME280;35974;47.752;10.290;2023-04-16T06:52:04;93825.88;;;3.68;100.00
50093;BME280;35974;47.752;10.290;2023-04-16T06:54:31;93828.16;;;3.79;100.00
50093;BME280;35974;47.752;10.290;2023-04-16T06:56:57;93835.13;;;3.71;100.00
50093;BME280;35974;47.752;10.290;2023-04-16T06:59:23;93825.25;;;3.74;100.00
50093;BME280;35974;47.752;10.290;2023-04-16T07:01:50;93826.03;;;3.75;100.00
50093;BME280;35974;47.752;10.290;2023-04-16T07:04:18;93832.50;;;3.95;100.00
50093;BME280;35974;47.752;10.290;2023-04-16T07:06:44;93833.16;;;3.89;100.00
50093;BME280;35974;47.752;10.290;2023-04-16T07:09:11;93830.09;;;3.85;100.00
50093;BME280;35974;47.752;10.290;2023-04-16T07:11:37;93837.38;;;3.90;100.00
50093;BME280;35974;47.752;10.290;2023-04-16T07:14:04;93824.41;;;4.07;100.00
50093;BME280;35974;47.752;10.290;2023-04-16T07:16:30;93827.00;;;3.98;100.00
50093;BME280;35974;47.752;10.290;2023-04-16T07:18:56;93829.59;;;3.90;100.00
50093;BME280;35974;47.752;10.290;2023-04-16T07:21:23;93829.91;;;4.03;100.00
50093;BME280;35974;47.752;10.290;2023-04-16T07:23:49;93825.06;;;4.00;100.00
50093;BME280;35974;47.752;10.290;2023-04-16T07:26:15;93829.91;;;3.95;100.00
50093;BME280;35974;47.752;10.290;2023-04-16T07:28:41;93831.03;;;4.01;100.00
50093;BME280;35974;47.752;10.290;2023-04-16T07:31:08;93832.19;;;3.98;100.00
50093;BME280;35974;47.752;10.290;2023-04-16T07:33:34;93841.88;;;4.05;100.00
50093;BME280;35974;47.752;10.290;2023-04-16T07:36:00;93836.06;;;3.94;100.00
50093;BME280;35974;47.752;10.290;2023-04-16T07:38:27;93834.75;;;4.07;100.00
50093;BME280;35974;47.752;10.290;2023-04-16T07:40:53;93847.16;;;4.28;100.00
50093;BME280;35974;47.752;10.290;2023-04-16T07:43:20;93845.44;;;4.03;100.00
50093;BME280;35974;47.752;10.290;2023-04-16T07:45:46;93838.31;;;4.06;100.00
50093;BME280;35974;47.752;10.290;2023-04-16T07:48:13;93849.97;;;4.01;100.00
50093;BME280;35974;47.752;10.290;2023-04-16T07:50:39;93848.03;;;4.03;100.00
50093;BME280;35974;47.752;10.290;2023-04-16T07:53:08;93846.06;;;4.14;100.00
50093;BME280;35974;47.752;10.290;2023-04-16T07:55:34;93848.66;;;4.06;100.00
50093;BME280;35974;47.752;10.290;2023-04-16T07:58:01;93864.19;;;4.06;100.00
50093;BME280;35974;47.752;10.290;2023-04-16T08:00:28;93854.81;;;4.13;100.00
50093;BME280;35974;47.752;10.290;2023-04-16T08:02:54;93870.66;;;4.26;100.00
50093;BME280;35974;47.752;10.290;2023-04-16T08:05:20;93856.69;;;4.27;100.00
50093;BME280;35974;47.752;10.290;2023-04-16T08:07:47;93866.75;;;4.30;100.00
50093;BME280;35974;47.752;10.290;2023-04-16T08:10:13;93868.97;;;4.42;100.00
50093;BME280;35974;47.752;10.290;2023-04-16T08:12:39;93880.00;;;4.35;100.00
50093;BME280;35974;47.752;10.290;2023-04-16T08:15:06;93873.50;;;4.48;100.00
50093;BME280;35974;47.752;10.290;2023-04-16T08:17:33;93875.94;;;4.49;100.00
50093;BME280;35974;47.752;10.290;2023-04-16T08:20:00;93880.16;;;4.42;100.00
50093;BME280;35974;47.752;10.290;2023-04-16T08:22:26;93878.41;;;4.34;100.00
50093;BME280;35974;47.752;10.290;2023-04-16T08:24:53;93886.31;;;4.41;100.00
50093;BME280;35974;47.752;10.290;2023-04-16T08:27:19;93885.81;;;4.54;100.00
50093;BME280;35974;47.752;10.290;2023-04-16T08:29:46;93884.19;;;4.45;100.00
50093;BME280;35974;47.752;10.290;2023-04-16T08:32:13;93891.63;;;4.48;100.00
50093;BME280;35974;47.752;10.290;2023-04-16T08:34:39;93891.00;;;4.46;100.00
50093;BME280;35974;47.752;10.290;2023-04-16T08:37:06;93899.66;;;4.77;100.00
50093;BME280;35974;47.752;10.290;2023-04-16T08:39:32;93893.22;;;4.65;100.00
50093;BME280;35974;47.752;10.290;2023-04-16T08:42:01;93898.03;;;4.76;100.00
50093;BME280;35974;47.752;10.290;2023-04-16T08:44:32;93898.50;;;4.80;100.00
50093;BME280;35974;47.752;10.290;2023-04-16T08:46:59;93894.47;;;4.77;100.00
50093;BME280;35974;47.752;10.290;2023-04-16T08:49:27;93894.75;;;4.91;100.00
50093;BME280;35974;47.752;10.290;2023-04-16T08:51:54;93899.88;;;5.07;100.00
50093;BME280;35974;47.752;10.290;2023-04-16T08:56:57;93906.09;;;5.21;100.00
50093;BME280;35974;47.752;10.290;2023-04-16T08:59:25;93901.19;;;4.95;100.00
50093;BME280;35974;47.752;10.290;2023-04-16T09:01:54;93904.44;;;4.97;100.00
50093;BME280;35974;47.752;10.290;2023-04-16T09:04:21;93907.03;;;5.05;100.00
50093;BME280;35974;47.752;10.290;2023-04-16T09:06:48;93903.44;;;5.38;100.00
50093;BME280;35974;47.752;10.290;2023-04-16T09:09:14;93911.50;;;5.11;100.00
50093;BME280;35974;47.752;10.290;2023-04-16T09:11:41;93915.34;;;5.24;100.00
50093;BME280;35974;47.752;10.290;2023-04-16T09:14:09;93912.78;;;5.16;100.00
50093;BME280;35974;47.752;10.290;2023-04-16T09:16:44;93910.50;;;5.21;100.00
50093;BME280;35974;47.752;10.290;2023-04-16T09:19:11;93914.81;;;5.60;100.00
50093;BME280;35974;47.752;10.290;2023-04-16T09:21:38;93925.63;;;5.40;100.00
50093;BME280;35974;47.752;10.290;2023-04-16T09:24:06;93923.25;;;5.30;100.00
50093;BME280;35974;47.752;10.290;2023-04-16T09:26:33;93921.81;;;5.28;100.00
50093;BME280;35974;47.752;10.290;2023-04-16T09:28:59;93931.97;;;5.38;100.00
50093;BME280;35974;47.752;10.290;2023-04-16T09:31:26;93932.38;;;5.58;100.00
50093;BME280;35974;47.752;10.290;2023-04-16T09:34:26;93929.69;;;5.43;100.00
50093;BME280;35974;47.752;10.290;2023-04-16T09:36:46;93928.19;;;5.48;100.00
50093;BME280;35974;47.752;10.290;2023-04-16T09:39:17;93935.47;;;5.76;100.00
50093;BME280;35974;47.752;10.290;2023-04-16T09:41:44;93934.34;;;5.47;100.00
50093;BME280;35974;47.752;10.290;2023-04-16T09:44:12;93932.78;;;5.38;100.00
50093;BME280;35974;47.752;10.290;2023-04-16T09:46:41;93933.72;;;5.45;100.00
50093;BME280;35974;47.752;10.290;2023-04-16T09:49:08;93942.50;;;5.44;100.00
50093;BME280;35974;47.752;10.290;2023-04-16T09:51:42;93934.41;;;5.39;100.00
50093;BME280;35974;47.752;10.290;2023-04-16T09:54:09;93938.56;;;5.48;100.00
50093;BME280;35974;47.752;10.290;2023-04-16T09:56:42;93943.63;;;5.42;100.00
50093;BME280;35974;47.752;10.290;2023-04-16T09:59:18;93939.41;;;5.72;100.00
50093;BME280;35974;47.752;10.290;2023-04-16T10:01:45;93946.78;;;5.60;100.00
50093;BME280;35974;47.752;10.290;2023-04-16T10:04:12;93943.75;;;5.48;100.00
50093;BME280;35974;47.752;10.290;2023-04-16T10:06:40;93941.00;;;5.50;100.00
50093;BME280;35974;47.752;10.290;2023-04-16T10:09:19;93948.94;;;5.48;100.00
50093;BME280;35974;47.752;10.290;2023-04-16T10:11:45;93943.31;;;5.68;100.00
50093;BME280;35974;47.752;10.290;2023-04-16T10:14:14;93947.31;;;5.47;100.00
50093;BME280;35974;47.752;10.290;2023-04-16T10:16:40;93945.75;;;5.93;100.00
50093;BME280;35974;47.752;10.290;2023-04-16T10:19:08;93946.09;;;5.66;100.00
50093;BME280;35974;47.752;10.290;2023-04-16T10:21:35;93948.50;;;5.68;100.00
50093;BME280;35974;47.752;10.290;2023-04-16T10:24:01;93946.03;;;6.06;100.00
50093;BME280;35974;47.752;10.290;2023-04-16T10:26:28;93946.09;;;5.90;100.00
50093;BME280;35974;47.752;10.290;2023-04-16T10:28:54;93953.94;;;5.81;100.00
50093;BME280;35974;47.752;10.290;2023-04-16T10:31:21;93945.47;;;5.87;100.00
50093;BME280;35974;47.752;10.290;2023-04-16T10:33:47;93942.81;;;5.96;100.00
50093;BME280;35974;47.752;10.290;2023-04-16T10:36:15;93950.59;;;5.96;100.00
50093;BME280;35974;47.752;10.290;2023-04-16T10:38:45;93949.00;;;5.95;100.00
50093;BME280;35974;47.752;10.290;2023-04-16T10:41:12;93953.25;;;5.87;100.00
50093;BME280;35974;47.752;10.290;2023-04-16T10:43:43;93957.53;;;5.80;100.00
50093;BME280;35974;47.752;10.290;2023-04-16T10:46:22;93954.66;;;5.75;100.00
50093;BME280;35974;47.752;10.290;2023-04-16T10:48:51;93953.47;;;5.55;100.00
50093;BME280;35974;47.752;10.290;2023-04-16T10:51:35;93950.41;;;6.05;100.00
50093;BME280;35974;47.752;10.290;2023-04-16T10:56:27;93956.75;;;6.26;100.00
50093;BME280;35974;47.752;10.290;2023-04-16T10:58:56;93949.50;;;5.98;100.00
50093;BME280;35974;47.752;10.290;2023-04-16T11:06:59;93951.91;;;6.00;100.00
50093;BME280;35974;47.752;10.290;2023-04-16T11:12:15;93954.19;;;6.03;100.00
50093;BME280;35974;47.752;10.290;2023-04-16T11:14:50;93960.91;;;6.12;100.00
50093;BME280;35974;47.752;10.290;2023-04-16T11:17:17;93960.06;;;6.35;100.00
50093;BME280;35974;47.752;10.290;2023-04-16T11:19:44;93953.63;;;6.08;100.00
50093;BME280;35974;47.752;10.290;2023-04-16T11:22:11;93952.47;;;6.10;100.00
50093;BME280;35974;47.752;10.290;2023-04-16T11:24:38;93952.25;;;5.97;100.00
50093;BME280;35974;47.752;10.290;2023-04-16T11:30:03;93957.75;;;6.40;100.00
50093;BME280;35974;47.752;10.290;2023-04-16T11:32:30;93953.75;;;6.14;100.00
50093;BME280;35974;47.752;10.290;2023-04-16T11:34:57;93961.16;;;6.26;100.00
50093;BME280;35974;47.752;10.290;2023-04-16T11:37:33;93962.75;;;6.27;100.00
50093;BME280;35974;47.752;10.290;2023-04-16T11:40:01;93969.97;;;6.54;100.00
50093;BME280;35974;47.752;10.290;2023-04-16T11:42:28;93971.75;;;6.39;100.00
50093;BME280;35974;47.752;10.290;2023-04-16T11:44:57;93967.78;;;6.66;100.00
50093;BME280;35974;47.752;10.290;2023-04-16T11:47:26;93966.25;;;6.72;100.00
50093;BME280;35974;47.752;10.290;2023-04-16T11:49:52;93969.63;;;6.57;100.00
50093;BME280;35974;47.752;10.290;2023-04-16T11:52:27;93976.91;;;6.77;100.00
50093;BME280;35974;47.752;10.290;2023-04-16T11:54:56;93979.53;;;6.77;100.00
50093;BME280;35974;47.752;10.290;2023-04-16T11:57:23;93975.09;;;6.63;100.00
50093;BME280;35974;47.752;10.290;2023-04-16T11:59:49;93978.19;;;6.81;100.00
50093;BME280;35974;47.752;10.290;2023-04-16T12:02:37;93973.63;;;6.83;100.00
50093;BME280;35974;47.752;10.290;2023-04-16T12:05:05;93970.03;;;6.84;100.00
50093;BME280;35974;47.752;10.290;2023-04-16T12:07:44;93976.47;;;6.88;100.00
50093;BME280;35974;47.752;10.290;2023-04-16T12:10:11;93986.22;;;6.56;100.00
50093;BME280;35974;47.752;10.290;2023-04-16T12:12:37;93987.22;;;6.55;100.00
50093;BME280;35974;47.752;10.290;2023-04-16T12:15:04;93981.75;;;6.65;100.00
50093;BME280;35974;47.752;10.290;2023-04-16T12:17:34;93982.91;;;6.63;100.00
50093;BME280;35974;47.752;10.290;2023-04-16T12:20:01;93974.94;;;6.64;100.00
50093;BME280;35974;47.752;10.290;2023-04-16T12:22:34;93975.75;;;6.65;100.00
50093;BME280;35974;47.752;10.290;2023-04-16T12:25:15;93979.09;;;6.88;100.00
50093;BME280;35974;47.752;10.290;2023-04-16T12:27:46;93980.13;;;6.64;100.00
50093;BME280;35974;47.752;10.290;2023-04-16T12:30:16;93985.66;;;7.14;100.00
50093;BME280;35974;47.752;10.290;2023-04-16T12:32:45;93987.81;;;6.95;100.00
50093;BME280;35974;47.752;10.290;2023-04-16T12:35:12;93986.19;;;6.94;100.00
50093;BME280;35974;47.752;10.290;2023-04-16T12:37:39;93993.16;;;6.79;100.00
50093;BME280;35974;47.752;10.290;2023-04-16T12:40:06;93987.06;;;6.72;100.00
50093;BME280;35974;47.752;10.290;2023-04-16T12:42:33;93990.28;;;6.74;100.00
50093;BME280;35974;47.752;10.290;2023-04-16T12:45:03;93987.44;;;6.99;100.00
50093;BME280;35974;47.752;10.290;2023-04-16T12:47:33;93983.13;;;6.76;100.00
50093;BME280;35974;47.752;10.290;2023-04-16T12:49:59;93988.50;;;6.89;100.00
50093;BME280;35974;47.752;10.290;2023-04-16T12:52:26;93983.84;;;7.00;100.00
50093;BME280;35974;47.752;10.290;2023-04-16T12:54:52;93988.34;;;6.76;100.00
50093;BME280;35974;47.752;10.290;2023-04-16T12:57:18;93994.72;;;6.50;100.00
50093;BME280;35974;47.752;10.290;2023-04-16T12:59:45;93986.88;;;6.88;100.00
50093;BME280;35974;47.752;10.290;2023-04-16T13:02:12;93989.41;;;6.96;100.00
50093;BME280;35974;47.752;10.290;2023-04-16T13:04:38;93987.06;;;6.72;100.00
50093;BME280;35974;47.752;10.290;2023-04-16T13:07:05;93990.44;;;6.57;100.00
50093;BME280;35974;47.752;10.290;2023-04-16T13:09:31;93985.94;;;6.51;100.00
50093;BME280;35974;47.752;10.290;2023-04-16T13:11:58;93989.06;;;6.23;100.00
50093;BME280;35974;47.752;10.290;2023-04-16T13:14:26;93984.59;;;6.17;100.00
50093;BME280;35974;47.752;10.290;2023-04-16T13:16:52;93980.03;;;6.57;100.00
50093;BME280;35974;47.752;10.290;2023-04-16T13:19:19;93985.31;;;6.64;100.00
50093;BME280;35974;47.752;10.290;2023-04-16T13:21:46;93985.06;;;6.74;100.00
50093;BME280;35974;47.752;10.290;2023-04-16T13:24:12;93986.69;;;6.75;100.00
50093;BME280;35974;47.752;10.290;2023-04-16T13:26:38;93980.63;;;6.97;100.00
50093;BME280;35974;47.752;10.290;2023-04-16T13:29:05;93981.50;;;6.90;100.00
50093;BME280;35974;47.752;10.290;2023-04-16T13:31:31;93981.69;;;6.88;100.00
50093;BME280;35974;47.752;10.290;2023-04-16T13:33:58;93988.16;;;6.92;100.00
50093;BME280;35974;47.752;10.290;2023-04-16T13:36:24;93991.75;;;6.91;100.00
50093;BME280;35974;47.752;10.290;2023-04-16T13:38:52;93993.72;;;7.19;100.00
50093;BME280;35974;47.752;10.290;2023-04-16T13:41:23;93987.44;;;7.28;100.00
50093;BME280;35974;47.752;10.290;2023-04-16T13:43:50;93991.56;;;7.08;100.00
50093;BME280;35974;47.752;10.290;2023-04-16T13:46:17;93999.19;;;7.09;100.00
50093;BME280;35974;47.752;10.290;2023-04-16T13:48:44;93993.88;;;7.32;100.00
50093;BME280;35974;47.752;10.290;2023-04-16T13:53:49;94000.28;;;7.15;100.00
50093;BME280;35974;47.752;10.290;2023-04-16T13:56:17;93999.81;;;6.96;100.00
50093;BME280;35974;47.752;10.290;2023-04-16T13:58:43;93994.44;;;6.83;100.00
50093;BME280;35974;47.752;10.290;2023-04-16T14:01:12;93997.19;;;6.67;100.00
50093;BME280;35974;47.752;10.290;2023-04-16T14:03:39;93990.50;;;6.87;100.00
50093;BME280;35974;47.752;10.290;2023-04-16T14:06:07;93992.28;;;7.02;100.00
50093;BME280;35974;47.752;10.290;2023-04-16T14:08:33;93988.16;;;6.92;100.00
50093;BME280;35974;47.752;10.290;2023-04-16T14:11:12;93986.34;;;6.78;100.00
50093;BME280;35974;47.752;10.290;2023-04-16T14:13:38;93992.09;;;6.88;100.00
50093;BME280;35974;47.752;10.290;2023-04-16T14:16:05;93989.72;;;6.64;100.00
50093;BME280;35974;47.752;10.290;2023-04-16T14:21:06;93999.63;;;6.83;100.00
50093;BME280;35974;47.752;10.290;2023-04-16T14:23:32;93998.72;;;6.76;100.00
50093;BME280;35974;47.752;10.290;2023-04-16T14:25:58;93913.44;;;6.18;100.00
50093;BME280;35974;47.752;10.290;2023-04-16T14:28:31;93998.19;;;6.81;100.00
50093;BME280;35974;47.752;10.290;2023-04-16T14:31:03;93990.50;;;7.17;100.00
50093;BME280;35974;47.752;10.290;2023-04-16T14:33:30;93996.06;;;6.84;100.00
50093;BME280;35974;47.752;10.290;2023-04-16T14:35:58;94001.03;;;6.71;100.00
50093;BME280;35974;47.752;10.290;2023-04-16T14:38:28;94000.69;;;6.74;100.00
50093;BME280;35974;47.752;10.290;2023-04-16T14:40:55;93993.19;;;6.56;100.00
50093;BME280;35974;47.752;10.290;2023-04-16T14:43:21;94002.66;;;6.72;100.00
50093;BME280;35974;47.752;10.290;2023-04-16T14:45:47;93996.06;;;6.61;100.00
50093;BME280;35974;47.752;10.290;2023-04-16T14:48:14;93995.81;;;6.71;100.00
50093;BME280;35974;47.752;10.290;2023-04-16T14:50:40;93998.84;;;6.59;100.00
50093;BME280;35974;47.752;10.290;2023-04-16T14:53:11;93992.16;;;6.65;100.00
50093;BME280;35974;47.752;10.290;2023-04-16T14:55:38;93996.56;;;6.65;100.00
50093;BME280;35974;47.752;10.290;2023-04-16T14:58:04;93996.06;;;6.84;100.00
50093;BME280;35974;47.752;10.290;2023-04-16T15:00:32;93995.81;;;6.71;100.00
50093;BME280;35974;47.752;10.290;2023-04-16T15:02:59;93998.16;;;6.66;100.00
50093;BME280;35974;47.752;10.290;2023-04-16T15:05:25;93999.78;;;6.67;100.00
50093;BME280;35974;47.752;10.290;2023-04-16T15:07:52;93995.88;;;6.48;100.00
50093;BME280;35974;47.752;10.290;2023-04-16T15:10:19;93995.22;;;6.31;100.00
50093;BME280;35974;47.752;10.290;2023-04-16T15:12:45;93988.38;;;6.30;100.00
50093;BME280;35974;47.752;10.290;2023-04-16T15:15:11;93999.94;;;6.50;100.00
50093;BME280;35974;47.752;10.290;2023-04-16T15:17:38;94002.53;;;6.50;100.00
50093;BME280;35974;47.752;10.290;2023-04-16T15:20:04;93995.41;;;6.44;100.00
50093;BME280;35974;47.752;10.290;2023-04-16T15:22:33;94000.41;;;6.31;100.00
50093;BME280;35974;47.752;10.290;2023-04-16T15:24:59;93997.81;;;6.31;100.00
50093;BME280;35974;47.752;10.290;2023-04-16T15:27:26;94002.34;;;6.52;100.00
50093;BME280;35974;47.752;10.290;2023-04-16T15:29:52;93999.09;;;6.50;100.00
50093;BME280;35974;47.752;10.290;2023-04-16T15:32:19;93993.09;;;6.49;100.00
50093;BME280;35974;47.752;10.290;2023-04-16T15:34:45;94002.50;;;6.35;100.00
50093;BME280;35974;47.752;10.290;2023-04-16T15:37:11;94000.53;;;6.14;100.00
50093;BME280;35974;47.752;10.290;2023-04-16T15:39:38;94007.66;;;6.12;100.00
50093;BME280;35974;47.752;10.290;2023-04-16T15:42:04;94004.31;;;6.27;100.00
50093;BME280;35974;47.752;10.290;2023-04-16T15:44:32;93998.09;;;6.36;100.00
50093;BME280;35974;47.752;10.290;2023-04-16T15:47:04;94004.53;;;6.40;100.00
50093;BME280;35974;47.752;10.290;2023-04-16T15:49:33;94006.03;;;6.57;100.00
50093;BME280;35974;47.752;10.290;2023-04-16T15:51:59;94006.38;;;6.54;100.00
50093;BME280;35974;47.752;10.290;2023-04-16T15:54:26;94008.06;;;6.47;100.00
50093;BME280;35974;47.752;10.290;2023-04-16T15:56:52;94012.16;;;6.41;100.00
50093;BME280;35974;47.752;10.290;2023-04-16T15:59:18;94013.56;;;6.52;100.00
50093;BME280;35974;47.752;10.290;2023-04-16T16:01:46;94004.91;;;6.37;100.00
50093;BME280;35974;47.752;10.290;2023-04-16T16:04:12;94008.81;;;6.33;100.00
50093;BME280;35974;47.752;10.290;2023-04-16T16:06:39;94010.22;;;6.20;100.00
50093;BME280;35974;47.752;10.290;2023-04-16T16:09:05;94014.25;;;6.46;100.00
50093;BME280;35974;47.752;10.290;2023-04-16T16:11:38;94016.69;;;6.63;100.00
50093;BME280;35974;47.752;10.290;2023-04-16T16:14:07;94016.44;;;6.57;100.00
50093;BME280;35974;47.752;10.290;2023-04-16T16:16:33;94012.50;;;6.62;100.00
50093;BME280;35974;47.752;10.290;2023-04-16T16:19:01;94010.19;;;6.67;100.00
50093;BME280;35974;47.752;10.290;2023-04-16T16:21:28;94018.19;;;6.42;100.00
50093;BME280;35974;47.752;10.290;2023-04-16T16:23:55;94022.44;;;6.35;100.00
50093;BME280;35974;47.752;10.290;2023-04-16T16:26:21;94024.63;;;6.46;100.00
50093;BME280;35974;47.752;10.290;2023-04-16T16:28:48;94021.75;;;6.41;100.00
50093;BME280;35974;47.752;10.290;2023-04-16T16:31:14;94026.16;;;6.40;100.00
50093;BME280;35974;47.752;10.290;2023-04-16T16:33:40;94022.56;;;6.41;100.00
50093;BME280;35974;47.752;10.290;2023-04-16T16:36:10;94026.75;;;6.28;100.00
50093;BME280;35974;47.752;10.290;2023-04-16T16:38:36;94024.53;;;6.16;100.00
50093;BME280;35974;47.752;10.290;2023-04-16T16:41:05;94027.75;;;6.18;100.00
50093;BME280;35974;47.752;10.290;2023-04-16T16:43:32;94026.16;;;6.17;100.00
50093;BME280;35974;47.752;10.290;2023-04-16T16:45:58;94030.06;;;6.13;100.00
50093;BME280;35974;47.752;10.290;2023-04-16T16:48:24;94022.91;;;6.15;100.00
50093;BME280;35974;47.752;10.290;2023-04-16T16:50:51;94018.53;;;6.16;100.00
50093;BME280;35974;47.752;10.290;2023-04-16T16:53:17;94026.16;;;6.17;100.00
50093;BME280;35974;47.752;10.290;2023-04-16T16:55:43;94020.97;;;6.17;100.00
50093;BME280;35974;47.752;10.290;2023-04-16T16:58:09;94027.59;;;6.20;100.00
50093;BME280;35974;47.752;10.290;2023-04-16T17:00:36;94026.63;;;6.21;100.00
50093;BME280;35974;47.752;10.290;2023-04-16T17:03:05;94023.84;;;6.22;100.00
50093;BME280;35974;47.752;10.290;2023-04-16T17:05:31;94021.88;;;6.25;100.00
50093;BME280;35974;47.752;10.290;2023-04-16T17:07:58;94022.44;;;6.35;100.00
50093;BME280;35974;47.752;10.290;2023-04-16T17:10:24;94025.22;;;6.56;100.00
50093;BME280;35974;47.752;10.290;2023-04-16T17:12:50;94023.63;;;6.32;100.00
50093;BME280;35974;47.752;10.290;2023-04-16T17:15:32;94032.28;;;6.25;100.00